sensor_id;sensor_type;location;lat;lon;timestamp;P1;durP1;ratioP1;P2;durP2;ratioP2
6551;SDS011;3309;48.708;9.290;2023-03-01T00:00:40;1.00;;;1.00;;
6551;SDS011;3309;48.708;9.290;2023-03-01T00:03:06;0.90;;;0.90;;
6551;SDS011;3309;48.708;9.290;2023-03-01T00:05:32;0.90;;;0.90;;
6551;SDS011;3309;48.708;9.290;2023-03-01T00:07:58;0.80;;;0.80;;
6551;SDS011;3309;48.708;9.290;2023-03-01T00:10:24;0.90;;;0.90;;
6551;SDS011;3309;48.708;9.290;2023-03-01T00:12:51;0.80;;;0.80;;
6551;SDS011;3309;48.708;9.290;2023-03-01T00:15:17;1.00;;;1.00;;
6551;SDS011;3309;48.708;9.290;2023-03-01T00:17:43;0.83;;;0.83;;
6551;SDS011;3309;48.708;9.290;2023-03-01T00:20:09;0.90;;;0.90;;
6551;SDS011;3309;48.708;9.290;2023-03-01T00:22:36;0.90;;;0.90;;
6551;SDS011;3309;48.708;9.290;2023-03-01T00:25:02;0.80;;;0.80;;
6551;SDS011;3309;48.708;9.290;2023-03-01T00:27:29;0.87;;;0.87;;
6551;SDS011;3309;48.708;9.290;2023-03-01T00:29:54;0.90;;;0.90;;
6551;SDS011;3309;48.708;9.290;2023-03-01T00:32:20;0.93;;;0.93;;
6551;SDS011;3309;48.708;9.290;2023-03-01T00:34:46;0.90;;;0.90;;
6551;SDS011;3309;48.708;9.290;2023-03-01T00:37:20;1.00;;;1.00;;
6551;SDS011;3309;48.708;9.290;2023-03-01T00:39:46;0.90;;;0.90;;
6551;SDS011;3309;48.708;9.290;2023-03-01T00:42:12;1.00;;;1.00;;
6551;SDS011;3309;48.708;9.290;2023-03-01T00:44:38;0.80;;;0.80;;
6551;SDS011;3309;48.708;9.290;2023-03-01T00:47:04;1.00;;;1.00;;
6551;SDS011;3309;48.708;9.290;2023-03-01T00:49:30;0.90;;;0.90;;
6551;SDS011;3309;48.708;9.290;2023-03-01T00:51:56;0.97;;;0.97;;
6551;SDS011;3309;48.708;9.290;2023-03-01T00:54:22;0.90;;;0.90;;
6551;SDS011;3309;48.708;9.290;2023-03-01T00:56:48;0.90;;;0.90;;
6551;SDS011;3309;48.708;9.290;2023-03-01T00:59:14;0.90;;;0.90;;
6551;SDS011;3309;48.708;9.290;2023-03-01T01:01:40;0.80;;;0.80;;
6551;SDS011;3309;48.708;9.290;2023-03-01T01:04:10;0.80;;;0.80;;
6551;SDS011;3309;48.708;9.290;2023-03-01T01:06:41;0.90;;;0.90;;
6551;SDS011;3309;48.708;9.290;2023-03-01T01:09:08;1.00;;;1.00;;
6551;SDS011;3309;48.708;9.290;2023-03-01T01:11:34;1.00;;;1.00;;
6551;SDS011;3309;48.708;9.290;2023-03-01T01:14:01;0.90;;;0.90;;
6551;SDS011;3309;48.708;9.290;2023-03-01T01:16:28;0.90;;;0.90;;
6551;SDS011;3309;48.708;9.290;2023-03-01T01:18:55;1.00;;;1.00;;
6551;SDS011;3309;48.708;9.290;2023-03-01T01:21:22;1.07;;;1.07;;
6551;SDS011;3309;48.708;9.290;2023-03-01T01:23:48;0.93;;;0.93;;
6551;SDS011;3309;48.708;9.290;2023-03-01T01:26:22;0.90;;;0.90;;
6551;SDS011;3309;48.708;9.290;2023-03-01T01:28:48;0.90;;;0.90;;
6551;SDS011;3309;48.708;9.290;2023-03-01T01:31:15;1.00;;;1.00;;
6551;SDS011;3309;48.708;9.290;2023-03-01T01:33:41;0.93;;;0.93;;
6551;SDS011;3309;48.708;9.290;2023-03-01T01:36:07;0.90;;;0.90;;
6551;SDS011;3309;48.708;9.290;2023-03-01T01:38:33;1.00;;;1.00;;
6551;SDS011;3309;48.708;9.290;2023-03-01T01:40:59;1.00;;;1.00;;
6551;SDS011;3309;48.708;9.290;2023-03-01T01:43:29;0.90;;;0.90;;
6551;SDS011;3309;48.708;9.290;2023-03-01T01:45:59;1.00;;;1.00;;
6551;SDS011;3309;48.708;9.290;2023-03-01T01:48:28;0.90;;;0.90;;
6551;SDS011;3309;48.708;9.290;2023-03-01T01:51:05;0.90;;;0.90;;
6551;SDS011;3309;48.708;9.290;2023-03-01T01:53:32;0.90;;;0.90;;
6551;SDS011;3309;48.708;9.290;2023-03-01T01:55:58;0.87;;;0.87;;
6551;SDS011;3309;48.708;9.290;2023-03-01T01:58:27;1.00;;;1.00;;
6551;SDS011;3309;48.708;9.290;2023-03-01T02:00:55;0.90;;;0.90;;
6551;SDS011;3309;48.708;9.290;2023-03-01T02:03:25;0.90;;;0.90;;
6551;SDS011;3309;48.708;9.290;2023-03-01T02:05:56;1.00;;;1.00;;
6551;SDS011;3309;48.708;9.290;2023-03-01T02:08:26;1.00;;;1.00;;
6551;SDS011;3309;48.708;9.290;2023-03-01T02:10:52;0.80;;;0.80;;
6551;SDS011;3309;48.708;9.290;2023-03-01T02:13:20;0.80;;;0.80;;
6551;SDS011;3309;48.708;9.290;2023-03-01T02:15:46;0.80;;;0.80;;
6551;SDS011;3309;48.708;9.290;2023-03-01T02:18:14;0.90;;;0.90;;
6551;SDS011;3309;48.708;9.290;2023-03-01T02:23:17;1.00;;;1.00;;
6551;SDS011;3309;48.708;9.290;2023-03-01T02:25:47;1.00;;;1.00;;
6551;SDS011;3309;48.708;9.290;2023-03-01T02:30:42;0.90;;;0.90;;
6551;SDS011;3309;48.708;9.290;2023-03-01T02:33:28;0.83;;;0.83;;
6551;SDS011;3309;48.708;9.290;2023-03-01T02:35:57;0.90;;;0.90;;
6551;SDS011;3309;48.708;9.290;2023-03-01T02:38:24;0.80;;;0.80;;
6551;SDS011;3309;48.708;9.290;2023-03-01T02:40:50;0.90;;;0.90;;
6551;SDS011;3309;48.708;9.290;2023-03-01T02:43:17;1.00;;;1.00;;
6551;SDS011;3309;48.708;9.290;2023-03-01T02:45:49;0.90;;;0.90;;
6551;SDS011;3309;48.708;9.290;2023-03-01T02:48:15;0.90;;;0.90;;
6551;SDS011;3309;48.708;9.290;2023-03-01T02:54:06;0.90;;;0.90;;
6551;SDS011;3309;48.708;9.290;2023-03-01T02:56:08;0.90;;;0.90;;
6551;SDS011;3309;48.708;9.290;2023-03-01T02:58:37;0.90;;;0.90;;
6551;SDS011;3309;48.708;9.290;2023-03-01T03:01:10;1.00;;;1.00;;
6551;SDS011;3309;48.708;9.290;2023-03-01T03:03:36;0.90;;;0.90;;
6551;SDS011;3309;48.708;9.290;2023-03-01T03:06:02;0.90;;;0.90;;
6551;SDS011;3309;48.708;9.290;2023-03-01T03:08:28;0.90;;;0.90;;
6551;SDS011;3309;48.708;9.290;2023-03-01T03:10:54;1.00;;;1.00;;
6551;SDS011;3309;48.708;9.290;2023-03-01T03:13:21;0.80;;;0.80;;
6551;SDS011;3309;48.708;9.290;2023-03-01T03:15:47;1.00;;;1.00;;
6551;SDS011;3309;48.708;9.290;2023-03-01T03:18:14;1.00;;;1.00;;
6551;SDS011;3309;48.708;9.290;2023-03-01T03:20:40;0.90;;;0.90;;
6551;SDS011;3309;48.708;9.290;2023-03-01T03:23:06;0.90;;;0.90;;
6551;SDS011;3309;48.708;9.290;2023-03-01T03:25:33;1.00;;;1.00;;
6551;SDS011;3309;48.708;9.290;2023-03-01T03:28:02;0.80;;;0.80;;
6551;SDS011;3309;48.708;9.290;2023-03-01T03:30:34;0.90;;;0.90;;
6551;SDS011;3309;48.708;9.290;2023-03-01T03:33:01;0.73;;;0.73;;
6551;SDS011;3309;48.708;9.290;2023-03-01T03:35:30;0.90;;;0.90;;
6551;SDS011;3309;48.708;9.290;2023-03-01T03:37:58;1.00;;;1.00;;
6551;SDS011;3309;48.708;9.290;2023-03-01T03:40:28;0.80;;;0.80;;
6551;SDS011;3309;48.708;9.290;2023-03-01T03:42:54;0.80;;;0.80;;
6551;SDS011;3309;48.708;9.290;2023-03-01T03:45:20;0.90;;;0.90;;
6551;SDS011;3309;48.708;9.290;2023-03-01T03:47:46;0.90;;;0.90;;
6551;SDS011;3309;48.708;9.290;2023-03-01T03:50:13;0.80;;;0.80;;
6551;SDS011;3309;48.708;9.290;2023-03-01T03:52:39;0.90;;;0.90;;
6551;SDS011;3309;48.708;9.290;2023-03-01T03:55:06;1.00;;;1.00;;
6551;SDS011;3309;48.708;9.290;2023-03-01T03:57:36;1.00;;;1.00;;
6551;SDS011;3309;48.708;9.290;2023-03-01T04:00:02;0.80;;;0.80;;
6551;SDS011;3309;48.708;9.290;2023-03-01T04:02:30;0.80;;;0.80;;
6551;SDS011;3309;48.708;9.290;2023-03-01T04:04:56;0.83;;;0.83;;
6551;SDS011;3309;48.708;9.290;2023-03-01T04:07:22;0.90;;;0.90;;
6551;SDS011;3309;48.708;9.290;2023-03-01T04:09:48;0.90;;;0.90;;
6551;SDS011;3309;48.708;9.290;2023-03-01T04:12:13;0.83;;;0.83;;
6551;SDS011;3309;48.708;9.290;2023-03-01T04:14:45;0.90;;;0.90;;
6551;SDS011;3309;48.708;9.290;2023-03-01T04:17:11;0.90;;;0.90;;
6551;SDS011;3309;48.708;9.290;2023-03-01T04:19:37;0.90;;;0.90;;
6551;SDS011;3309;48.708;9.290;2023-03-01T04:22:03;0.90;;;0.90;;
6551;SDS011;3309;48.708;9.290;2023-03-01T04:24:34;0.90;;;0.90;;
6551;SDS011;3309;48.708;9.290;2023-03-01T04:27:00;1.00;;;1.00;;
6551;SDS011;3309;48.708;9.290;2023-03-01T04:29:26;0.90;;;0.90;;
6551;SDS011;3309;48.708;9.290;2023-03-01T04:31:52;1.00;;;1.00;;
6551;SDS011;3309;48.708;9.290;2023-03-01T04:34:18;0.90;;;0.90;;
6551;SDS011;3309;48.708;9.290;2023-03-01T04:36:44;0.90;;;0.90;;
6551;SDS011;3309;48.708;9.290;2023-03-01T04:39:10;0.90;;;0.90;;
6551;SDS011;3309;48.708;9.290;2023-03-01T04:41:39;0.90;;;0.90;;
6551;SDS011;3309;48.708;9.290;2023-03-01T04:44:06;0.90;;;0.90;;
6551;SDS011;3309;48.708;9.290;2023-03-01T04:46:34;0.80;;;0.80;;
6551;SDS011;3309;48.708;9.290;2023-03-01T04:49:00;0.90;;;0.90;;
6551;SDS011;3309;48.708;9.290;2023-03-01T04:51:26;1.00;;;1.00;;
6551;SDS011;3309;48.708;9.290;2023-03-01T04:53:52;1.00;;;1.00;;
6551;SDS011;3309;48.708;9.290;2023-03-01T04:56:18;0.80;;;0.80;;
6551;SDS011;3309;48.708;9.290;2023-03-01T04:58:44;1.00;;;1.00;;
6551;SDS011;3309;48.708;9.290;2023-03-01T05:01:11;0.90;;;0.90;;
6551;SDS011;3309;48.708;9.290;2023-03-01T05:03:40;0.90;;;0.90;;
6551;SDS011;3309;48.708;9.290;2023-03-01T05:06:06;0.90;;;0.90;;
6551;SDS011;3309;48.708;9.290;2023-03-01T05:08:32;0.87;;;0.87;;
6551;SDS011;3309;48.708;9.290;2023-03-01T05:10:59;0.80;;;0.80;;
6551;SDS011;3309;48.708;9.290;2023-03-01T05:13:25;0.90;;;0.90;;
6551;SDS011;3309;48.708;9.290;2023-03-01T05:15:58;0.90;;;0.90;;
6551;SDS011;3309;48.708;9.290;2023-03-01T05:18:25;0.90;;;0.90;;
6551;SDS011;3309;48.708;9.290;2023-03-01T05:20:55;0.90;;;0.90;;
6551;SDS011;3309;48.708;9.290;2023-03-01T05:23:23;1.00;;;1.00;;
6551;SDS011;3309;48.708;9.290;2023-03-01T05:25:49;1.00;;;1.00;;
6551;SDS011;3309;48.708;9.290;2023-03-01T05:28:17;0.93;;;0.93;;
6551;SDS011;3309;48.708;9.290;2023-03-01T05:30:44;0.90;;;0.90;;
6551;SDS011;3309;48.708;9.290;2023-03-01T05:33:10;1.00;;;1.00;;
6551;SDS011;3309;48.708;9.290;2023-03-01T05:35:39;0.97;;;0.97;;
6551;SDS011;3309;48.708;9.290;2023-03-01T05:38:06;0.80;;;0.80;;
6551;SDS011;3309;48.708;9.290;2023-03-01T05:40:33;0.90;;;0.90;;
6551;SDS011;3309;48.708;9.290;2023-03-01T05:42:59;0.90;;;0.90;;
6551;SDS011;3309;48.708;9.290;2023-03-01T05:45:25;0.90;;;0.90;;
6551;SDS011;3309;48.708;9.290;2023-03-01T05:47:52;1.00;;;1.00;;
6551;SDS011;3309;48.708;9.290;2023-03-01T05:50:23;0.90;;;0.90;;
6551;SDS011;3309;48.708;9.290;2023-03-01T05:53:00;0.90;;;0.90;;
6551;SDS011;3309;48.708;9.290;2023-03-01T05:55:27;0.90;;;0.90;;
6551;SDS011;3309;48.708;9.290;2023-03-01T05:57:53;0.90;;;0.90;;
6551;SDS011;3309;48.708;9.290;2023-03-01T06:00:20;0.90;;;0.90;;
6551;SDS011;3309;48.708;9.290;2023-03-01T06:02:49;0.90;;;0.90;;
6551;SDS011;3309;48.708;9.290;2023-03-01T06:05:17;0.90;;;0.90;;
6551;SDS011;3309;48.708;9.290;2023-03-01T06:07:43;0.90;;;0.90;;
6551;SDS011;3309;48.708;9.290;2023-03-01T06:10:09;0.90;;;0.90;;
6551;SDS011;3309;48.708;9.290;2023-03-01T06:12:36;1.00;;;1.00;;
6551;SDS011;3309;48.708;9.290;2023-03-01T06:15:02;0.90;;;0.90;;
6551;SDS011;3309;48.708;9.290;2023-03-01T06:17:29;0.90;;;0.90;;
6551;SDS011;3309;48.708;9.290;2023-03-01T06:19:56;0.90;;;0.90;;
6551;SDS011;3309;48.708;9.290;2023-03-01T06:22:22;0.90;;;0.90;;
6551;SDS011;3309;48.708;9.290;2023-03-01T06:24:48;0.90;;;0.90;;
6551;SDS011;3309;48.708;9.290;2023-03-01T06:27:14;0.90;;;0.90;;
6551;SDS011;3309;48.708;9.290;2023-03-01T06:29:40;0.90;;;0.90;;
6551;SDS011;3309;48.708;9.290;2023-03-01T06:32:06;0.90;;;0.90;;
6551;SDS011;3309;48.708;9.290;2023-03-01T06:34:33;0.80;;;0.80;;
6551;SDS011;3309;48.708;9.290;2023-03-01T06:36:59;0.87;;;0.87;;
6551;SDS011;3309;48.708;9.290;2023-03-01T06:39:27;0.90;;;0.90;;
6551;SDS011;3309;48.708;9.290;2023-03-01T06:41:53;0.90;;;0.90;;
6551;SDS011;3309;48.708;9.290;2023-03-01T06:44:19;0.90;;;0.90;;
6551;SDS011;3309;48.708;9.290;2023-03-01T06:46:45;0.90;;;0.90;;
6551;SDS011;3309;48.708;9.290;2023-03-01T06:49:11;0.70;;;0.70;;
6551;SDS011;3309;48.708;9.290;2023-03-01T06:51:37;1.00;;;1.00;;
6551;SDS011;3309;48.708;9.290;2023-03-01T06:54:04;0.87;;;0.87;;
6551;SDS011;3309;48.708;9.290;2023-03-01T06:56:30;0.90;;;0.90;;
6551;SDS011;3309;48.708;9.290;2023-03-01T06:58:57;0.90;;;0.90;;
6551;SDS011;3309;48.708;9.290;2023-03-01T07:01:23;0.90;;;0.90;;
6551;SDS011;3309;48.708;9.290;2023-03-01T07:03:48;0.80;;;0.80;;
6551;SDS011;3309;48.708;9.290;2023-03-01T07:06:14;0.90;;;0.90;;
6551;SDS011;3309;48.708;9.290;2023-03-01T07:08:41;0.80;;;0.80;;
6551;SDS011;3309;48.708;9.290;2023-03-01T07:11:07;0.80;;;0.80;;
6551;SDS011;3309;48.708;9.290;2023-03-01T07:13:33;0.80;;;0.80;;
6551;SDS011;3309;48.708;9.290;2023-03-01T07:15:59;0.70;;;0.70;;
6551;SDS011;3309;48.708;9.290;2023-03-01T07:18:25;0.63;;;0.63;;
6551;SDS011;3309;48.708;9.290;2023-03-01T07:20:51;0.70;;;0.70;;
6551;SDS011;3309;48.708;9.290;2023-03-01T07:23:17;0.70;;;0.70;;
6551;SDS011;3309;48.708;9.290;2023-03-01T07:25:43;0.70;;;0.70;;
6551;SDS011;3309;48.708;9.290;2023-03-01T07:28:09;0.70;;;0.70;;
6551;SDS011;3309;48.708;9.290;2023-03-01T07:30:35;0.67;;;0.67;;
6551;SDS011;3309;48.708;9.290;2023-03-01T07:33:01;0.70;;;0.70;;
6551;SDS011;3309;48.708;9.290;2023-03-01T07:35:27;0.70;;;0.70;;
6551;SDS011;3309;48.708;9.290;2023-03-01T07:37:53;0.60;;;0.60;;
6551;SDS011;3309;48.708;9.290;2023-03-01T07:40:19;0.77;;;0.77;;
6551;SDS011;3309;48.708;9.290;2023-03-01T07:42:45;0.53;;;0.53;;
6551;SDS011;3309;48.708;9.290;2023-03-01T07:45:11;0.60;;;0.60;;
6551;SDS011;3309;48.708;9.290;2023-03-01T07:47:38;0.50;;;0.50;;
6551;SDS011;3309;48.708;9.290;2023-03-01T07:50:04;0.60;;;0.60;;
6551;SDS011;3309;48.708;9.290;2023-03-01T07:52:30;0.53;;;0.53;;
6551;SDS011;3309;48.708;9.290;2023-03-01T07:54:56;0.50;;;0.50;;
6551;SDS011;3309;48.708;9.290;2023-03-01T07:57:23;0.60;;;0.60;;
6551;SDS011;3309;48.708;9.290;2023-03-01T07:59:49;0.47;;;0.47;;
6551;SDS011;3309;48.708;9.290;2023-03-01T08:02:15;0.50;;;0.50;;
6551;SDS011;3309;48.708;9.290;2023-03-01T08:04:41;0.50;;;0.50;;
6551;SDS011;3309;48.708;9.290;2023-03-01T08:07:07;0.60;;;0.60;;
6551;SDS011;3309;48.708;9.290;2023-03-01T08:09:36;0.60;;;0.60;;
6551;SDS011;3309;48.708;9.290;2023-03-01T08:12:03;0.60;;;0.60;;
6551;SDS011;3309;48.708;9.290;2023-03-01T08:14:30;0.60;;;0.60;;
6551;SDS011;3309;48.708;9.290;2023-03-01T08:16:56;0.50;;;0.50;;
6551;SDS011;3309;48.708;9.290;2023-03-01T08:19:22;0.50;;;0.50;;
6551;SDS011;3309;48.708;9.290;2023-03-01T08:21:48;0.60;;;0.60;;
6551;SDS011;3309;48.708;9.290;2023-03-01T08:24:14;0.50;;;0.50;;
6551;SDS011;3309;48.708;9.290;2023-03-01T08:26:40;0.60;;;0.60;;
6551;SDS011;3309;48.708;9.290;2023-03-01T08:29:06;0.50;;;0.50;;
6551;SDS011;3309;48.708;9.290;2023-03-01T08:31:33;0.60;;;0.60;;
6551;SDS011;3309;48.708;9.290;2023-03-01T08:34:04;0.50;;;0.50;;
6551;SDS011;3309;48.708;9.290;2023-03-01T08:36:32;0.50;;;0.50;;
6551;SDS011;3309;48.708;9.290;2023-03-01T08:38:59;0.50;;;0.50;;
6551;SDS011;3309;48.708;9.290;2023-03-01T08:41:25;0.50;;;0.50;;
6551;SDS011;3309;48.708;9.290;2023-03-01T08:43:51;0.40;;;0.40;;
6551;SDS011;3309;48.708;9.290;2023-03-01T08:46:17;0.50;;;0.50;;
6551;SDS011;3309;48.708;9.290;2023-03-01T08:48:43;0.57;;;0.57;;
6551;SDS011;3309;48.708;9.290;2023-03-01T08:51:14;0.60;;;0.60;;
6551;SDS011;3309;48.708;9.290;2023-03-01T08:53:40;0.50;;;0.50;;
6551;SDS011;3309;48.708;9.290;2023-03-01T08:56:07;0.50;;;0.50;;
6551;SDS011;3309;48.708;9.290;2023-03-01T08:58:33;0.60;;;0.60;;
6551;SDS011;3309;48.708;9.290;2023-03-01T09:00:59;0.50;;;0.50;;
6551;SDS011;3309;48.708;9.290;2023-03-01T09:03:25;0.50;;;0.50;;
6551;SDS011;3309;48.708;9.290;2023-03-01T09:05:52;0.40;;;0.40;;
6551;SDS011;3309;48.708;9.290;2023-03-01T09:08:18;0.50;;;0.50;;
6551;SDS011;3309;48.708;9.290;2023-03-01T09:10:45;0.60;;;0.60;;
6551;SDS011;3309;48.708;9.290;2023-03-01T09:13:11;0.60;;;0.60;;
6551;SDS011;3309;48.708;9.290;2023-03-01T09:15:37;0.60;;;0.60;;
6551;SDS011;3309;48.708;9.290;2023-03-01T09:18:03;0.70;;;0.70;;
6551;SDS011;3309;48.708;9.290;2023-03-01T09:20:30;0.50;;;0.50;;
6551;SDS011;3309;48.708;9.290;2023-03-01T09:22:56;0.63;;;0.63;;
6551;SDS011;3309;48.708;9.290;2023-03-01T09:25:22;0.40;;;0.40;;
6551;SDS011;3309;48.708;9.290;2023-03-01T09:27:52;0.50;;;0.50;;
6551;SDS011;3309;48.708;9.290;2023-03-01T09:30:18;0.53;;;0.53;;
6551;SDS011;3309;48.708;9.290;2023-03-01T09:32:44;0.60;;;0.60;;
6551;SDS011;3309;48.708;9.290;2023-03-01T09:35:11;0.60;;;0.60;;
6551;SDS011;3309;48.708;9.290;2023-03-01T09:37:37;0.50;;;0.50;;
6551;SDS011;3309;48.708;9.290;2023-03-01T09:40:06;0.50;;;0.50;;
6551;SDS011;3309;48.708;9.290;2023-03-01T09:42:34;0.70;;;0.70;;
6551;SDS011;3309;48.708;9.290;2023-03-01T09:45:04;0.60;;;0.60;;
6551;SDS011;3309;48.708;9.290;2023-03-01T09:47:31;0.60;;;0.60;;
6551;SDS011;3309;48.708;9.290;2023-03-01T09:52:44;0.63;;;0.63;;
6551;SDS011;3309;48.708;9.290;2023-03-01T09:55:16;0.50;;;0.50;;
6551;SDS011;3309;48.708;9.290;2023-03-01T10:03:02;0.53;;;0.53;;
6551;SDS011;3309;48.708;9.290;2023-03-01T10:07:59;0.40;;;0.40;;
6551;SDS011;3309;48.708;9.290;2023-03-01T10:10:28;0.60;;;0.60;;
6551;SDS011;3309;48.708;9.290;2023-03-01T10:12:54;0.53;;;0.53;;
6551;SDS011;3309;48.708;9.290;2023-03-01T10:18:12;0.60;;;0.60;;
6551;SDS011;3309;48.708;9.290;2023-03-01T10:23:07;0.57;;;0.57;;
6551;SDS011;3309;48.708;9.290;2023-03-01T10:28:20;0.60;;;0.60;;
6551;SDS011;3309;48.708;9.290;2023-03-01T10:30:48;0.60;;;0.60;;
6551;SDS011;3309;48.708;9.290;2023-03-01T10:33:20;0.70;;;0.70;;
6551;SDS011;3309;48.708;9.290;2023-03-01T10:35:47;0.60;;;0.60;;
6551;SDS011;3309;48.708;9.290;2023-03-01T10:38:13;0.60;;;0.60;;
6551;SDS011;3309;48.708;9.290;2023-03-01T10:43:26;0.60;;;0.60;;
6551;SDS011;3309;48.708;9.290;2023-03-01T10:45:53;0.50;;;0.50;;
6551;SDS011;3309;48.708;9.290;2023-03-01T10:48:23;0.50;;;0.50;;
6551;SDS011;3309;48.708;9.290;2023-03-01T10:53:31;0.50;;;0.50;;
6551;SDS011;3309;48.708;9.290;2023-03-01T10:58:24;0.60;;;0.60;;
6551;SDS011;3309;48.708;9.290;2023-03-01T11:04:03;0.50;;;0.50;;
6551;SDS011;3309;48.708;9.290;2023-03-01T11:06:29;0.40;;;0.40;;
6551;SDS011;3309;48.708;9.290;2023-03-01T11:08:55;0.60;;;0.60;;
6551;SDS011;3309;48.708;9.290;2023-03-01T11:13:51;0.60;;;0.60;;
6551;SDS011;3309;48.708;9.290;2023-03-01T11:16:39;0.50;;;0.50;;
6551;SDS011;3309;48.708;9.290;2023-03-01T11:19:13;0.50;;;0.50;;
6551;SDS011;3309;48.708;9.290;2023-03-01T11:21:52;0.40;;;0.40;;
6551;SDS011;3309;48.708;9.290;2023-03-01T11:24:19;0.40;;;0.40;;
6551;SDS011;3309;48.708;9.290;2023-03-01T11:26:47;0.40;;;0.40;;
6551;SDS011;3309;48.708;9.290;2023-03-01T11:29:26;0.40;;;0.40;;
6551;SDS011;3309;48.708;9.290;2023-03-01T11:31:54;0.40;;;0.40;;
6551;SDS011;3309;48.708;9.290;2023-03-01T11:34:31;0.30;;;0.30;;
6551;SDS011;3309;48.708;9.290;2023-03-01T11:37:01;0.43;;;0.43;;
6551;SDS011;3309;48.708;9.290;2023-03-01T11:39:38;0.40;;;0.40;;
6551;SDS011;3309;48.708;9.290;2023-03-01T11:42:12;0.50;;;0.50;;
6551;SDS011;3309;48.708;9.290;2023-03-01T11:44:40;0.30;;;0.30;;
6551;SDS011;3309;48.708;9.290;2023-03-01T11:57:04;0.50;;;0.50;;
6551;SDS011;3309;48.708;9.290;2023-03-01T11:59:36;0.50;;;0.50;;
6551;SDS011;3309;48.708;9.290;2023-03-01T12:02:15;0.50;;;0.50;;
6551;SDS011;3309;48.708;9.290;2023-03-01T12:04:57;0.50;;;0.50;;
6551;SDS011;3309;48.708;9.290;2023-03-01T12:15:13;0.47;;;0.47;;
6551;SDS011;3309;48.708;9.290;2023-03-01T12:17:50;0.43;;;0.43;;
6551;SDS011;3309;48.708;9.290;2023-03-01T12:20:28;0.30;;;0.30;;
6551;SDS011;3309;48.708;9.290;2023-03-01T12:25:41;0.40;;;0.40;;
6551;SDS011;3309;48.708;9.290;2023-03-01T12:33:19;0.50;;;0.50;;
6551;SDS011;3309;48.708;9.290;2023-03-01T12:35:51;0.50;;;0.50;;
6551;SDS011;3309;48.708;9.290;2023-03-01T12:46:22;0.50;;;0.50;;
6551;SDS011;3309;48.708;9.290;2023-03-01T12:51:24;0.50;;;0.50;;
6551;SDS011;3309;48.708;9.290;2023-03-01T12:53:53;0.50;;;0.50;;
6551;SDS011;3309;48.708;9.290;2023-03-01T12:56:23;0.50;;;0.50;;
6551;SDS011;3309;48.708;9.290;2023-03-01T13:09:16;0.47;;;0.47;;
6551;SDS011;3309;48.708;9.290;2023-03-01T13:11:43;0.50;;;0.50;;
6551;SDS011;3309;48.708;9.290;2023-03-01T13:16:50;0.57;;;0.57;;
6551;SDS011;3309;48.708;9.290;2023-03-01T13:19:20;0.50;;;0.50;;
6551;SDS011;3309;48.708;9.290;2023-03-01T13:21:47;0.60;;;0.60;;
6551;SDS011;3309;48.708;9.290;2023-03-01T13:27:09;0.67;;;0.67;;
6551;SDS011;3309;48.708;9.290;2023-03-01T13:32:33;0.53;;;0.53;;
6551;SDS011;3309;48.708;9.290;2023-03-01T13:35:08;0.60;;;0.60;;
6551;SDS011;3309;48.708;9.290;2023-03-01T13:37:49;0.70;;;0.70;;
6551;SDS011;3309;48.708;9.290;2023-03-01T13:42:47;0.60;;;0.60;;
6551;SDS011;3309;48.708;9.290;2023-03-01T13:45:18;0.70;;;0.70;;
6551;SDS011;3309;48.708;9.290;2023-03-01T13:47:45;0.60;;;0.60;;
6551;SDS011;3309;48.708;9.290;2023-03-01T13:50:21;0.70;;;0.70;;
6551;SDS011;3309;48.708;9.290;2023-03-01T13:52:56;0.70;;;0.70;;
6551;SDS011;3309;48.708;9.290;2023-03-01T13:55:42;0.50;;;0.50;;
6551;SDS011;3309;48.708;9.290;2023-03-01T13:58:23;0.70;;;0.70;;
6551;SDS011;3309;48.708;9.290;2023-03-01T14:01:03;0.80;;;0.80;;
6551;SDS011;3309;48.708;9.290;2023-03-01T14:03:30;0.70;;;0.70;;
6551;SDS011;3309;48.708;9.290;2023-03-01T14:06:02;0.70;;;0.70;;
6551;SDS011;3309;48.708;9.290;2023-03-01T14:08:31;0.63;;;0.63;;
6551;SDS011;3309;48.708;9.290;2023-03-01T14:13:39;0.80;;;0.80;;
6551;SDS011;3309;48.708;9.290;2023-03-01T14:16:31;0.70;;;0.70;;
6551;SDS011;3309;48.708;9.290;2023-03-01T14:21:36;0.80;;;0.80;;
6551;SDS011;3309;48.708;9.290;2023-03-01T14:24:02;0.70;;;0.70;;
6551;SDS011;3309;48.708;9.290;2023-03-01T14:26:28;0.70;;;0.70;;
6551;SDS011;3309;48.708;9.290;2023-03-01T14:28:56;0.70;;;0.70;;
6551;SDS011;3309;48.708;9.290;2023-03-01T14:31:38;0.80;;;0.80;;
6551;SDS011;3309;48.708;9.290;2023-03-01T14:34:05;0.70;;;0.70;;
6551;SDS011;3309;48.708;9.290;2023-03-01T14:36:32;0.80;;;0.80;;
6551;SDS011;3309;48.708;9.290;2023-03-01T14:38:58;0.70;;;0.70;;
6551;SDS011;3309;48.708;9.290;2023-03-01T14:41:30;0.70;;;0.70;;
6551;SDS011;3309;48.708;9.290;2023-03-01T14:44:16;0.70;;;0.70;;
6551;SDS011;3309;48.708;9.290;2023-03-01T14:46:44;0.70;;;0.70;;
6551;SDS011;3309;48.708;9.290;2023-03-01T14:49:12;0.80;;;0.80;;
6551;SDS011;3309;48.708;9.290;2023-03-01T14:51:41;0.70;;;0.70;;
6551;SDS011;3309;48.708;9.290;2023-03-01T14:54:27;0.70;;;0.70;;
6551;SDS011;3309;48.708;9.290;2023-03-01T14:56:57;0.70;;;0.70;;
6551;SDS011;3309;48.708;9.290;2023-03-01T14:59:23;0.60;;;0.60;;
6551;SDS011;3309;48.708;9.290;2023-03-01T15:01:50;0.80;;;0.80;;
6551;SDS011;3309;48.708;9.290;2023-03-01T15:04:16;0.70;;;0.70;;
6551;SDS011;3309;48.708;9.290;2023-03-01T15:06:43;0.70;;;0.70;;
6551;SDS011;3309;48.708;9.290;2023-03-01T15:09:14;0.60;;;0.60;;
6551;SDS011;3309;48.708;9.290;2023-03-01T15:11:43;0.63;;;0.63;;
6551;SDS011;3309;48.708;9.290;2023-03-01T15:17:20;0.70;;;0.70;;
6551;SDS011;3309;48.708;9.290;2023-03-01T15:19:47;0.80;;;0.80;;
6551;SDS011;3309;48.708;9.290;2023-03-01T15:22:16;0.70;;;0.70;;
6551;SDS011;3309;48.708;9.290;2023-03-01T15:24:46;0.70;;;0.70;;
6551;SDS011;3309;48.708;9.290;2023-03-01T15:27:14;0.50;;;0.50;;
6551;SDS011;3309;48.708;9.290;2023-03-01T15:29:41;0.80;;;0.80;;
6551;SDS011;3309;48.708;9.290;2023-03-01T15:32:24;0.80;;;0.80;;
6551;SDS011;3309;48.708;9.290;2023-03-01T15:34:50;0.80;;;0.80;;
6551;SDS011;3309;48.708;9.290;2023-03-01T15:40:02;0.80;;;0.80;;
6551;SDS011;3309;48.708;9.290;2023-03-01T15:45:19;0.70;;;0.70;;
6551;SDS011;3309;48.708;9.290;2023-03-01T15:47:47;0.80;;;0.80;;
6551;SDS011;3309;48.708;9.290;2023-03-01T15:50:29;0.70;;;0.70;;
6551;SDS011;3309;48.708;9.290;2023-03-01T15:52:58;0.80;;;0.80;;
6551;SDS011;3309;48.708;9.290;2023-03-01T15:55:25;0.80;;;0.80;;
6551;SDS011;3309;48.708;9.290;2023-03-01T15:58:04;0.80;;;0.80;;
6551;SDS011;3309;48.708;9.290;2023-03-01T16:00:31;0.70;;;0.70;;
6551;SDS011;3309;48.708;9.290;2023-03-01T16:02:58;0.70;;;0.70;;
6551;SDS011;3309;48.708;9.290;2023-03-01T16:07:51;0.70;;;0.70;;
6551;SDS011;3309;48.708;9.290;2023-03-01T16:10:17;0.80;;;0.80;;
6551;SDS011;3309;48.708;9.290;2023-03-01T16:12:43;0.70;;;0.70;;
6551;SDS011;3309;48.708;9.290;2023-03-01T16:15:16;0.67;;;0.67;;
6551;SDS011;3309;48.708;9.290;2023-03-01T16:17:43;0.70;;;0.70;;
6551;SDS011;3309;48.708;9.290;2023-03-01T16:20:09;0.80;;;0.80;;
6551;SDS011;3309;48.708;9.290;2023-03-01T16:22:35;0.77;;;0.77;;
6551;SDS011;3309;48.708;9.290;2023-03-01T16:25:02;0.77;;;0.77;;
6551;SDS011;3309;48.708;9.290;2023-03-01T16:27:28;0.60;;;0.60;;
6551;SDS011;3309;48.708;9.290;2023-03-01T16:29:54;0.70;;;0.70;;
6551;SDS011;3309;48.708;9.290;2023-03-01T16:32:20;0.60;;;0.60;;
6551;SDS011;3309;48.708;9.290;2023-03-01T16:34:46;0.70;;;0.70;;
6551;SDS011;3309;48.708;9.290;2023-03-01T16:37:14;0.70;;;0.70;;
6551;SDS011;3309;48.708;9.290;2023-03-01T16:39:40;0.70;;;0.70;;
6551;SDS011;3309;48.708;9.290;2023-03-01T16:42:06;0.70;;;0.70;;
6551;SDS011;3309;48.708;9.290;2023-03-01T16:44:32;0.70;;;0.70;;
6551;SDS011;3309;48.708;9.290;2023-03-01T16:46:58;0.70;;;0.70;;
6551;SDS011;3309;48.708;9.290;2023-03-01T16:49:24;0.93;;;0.93;;
6551;SDS011;3309;48.708;9.290;2023-03-01T16:51:52;0.80;;;0.80;;
6551;SDS011;3309;48.708;9.290;2023-03-01T16:54:19;0.70;;;0.70;;
6551;SDS011;3309;48.708;9.290;2023-03-01T16:56:45;0.80;;;0.80;;
6551;SDS011;3309;48.708;9.290;2023-03-01T16:59:10;0.63;;;0.63;;
6551;SDS011;3309;48.708;9.290;2023-03-01T17:01:36;0.80;;;0.80;;
6551;SDS011;3309;48.708;9.290;2023-03-01T17:04:05;0.70;;;0.70;;
6551;SDS011;3309;48.708;9.290;2023-03-01T17:06:31;0.80;;;0.80;;
6551;SDS011;3309;48.708;9.290;2023-03-01T17:08:57;0.80;;;0.80;;
6551;SDS011;3309;48.708;9.290;2023-03-01T17:11:24;0.80;;;0.80;;
6551;SDS011;3309;48.708;9.290;2023-03-01T17:13:50;0.70;;;0.70;;